createdAt,value
2023-05-03T00:01:01.652Z,367.90
2023-05-03T00:02:04.775Z,274.95
2023-05-03T00:03:11.141Z,336.77
2023-05-03T00:04:15.278Z,318.83
2023-05-03T00:05:20.353Z,336.10
2023-05-03T00:06:22.629Z,331.13
2023-05-03T00:07:27.598Z,231.88
2023-05-03T00:08:29.790Z,287.15
2023-05-03T00:09:37.016Z,297.13
2023-05-03T00:10:39.792Z,335.02
2023-05-03T00:11:44.927Z,273.70
2023-05-03T00:12:49.682Z,334.80
2023-05-03T00:13:54.368Z,242.32
2023-05-03T00:14:56.805Z,315.58
2023-05-03T00:16:02.054Z,325.17
2023-05-03T00:17:04.624Z,314.88
2023-05-03T00:18:09.973Z,253.82
2023-05-03T00:19:24.192Z,373.65
2023-05-03T00:20:33.520Z,293.13
2023-05-03T00:21:35.766Z,313.05
2023-05-03T00:22:40.600Z,348.77
2023-05-03T00:23:42.755Z,292.98
2023-05-03T00:24:47.692Z,263.85
2023-05-03T00:25:52.911Z,243.10
2023-05-03T00:26:57.813Z,292.75
2023-05-03T00:28:02.585Z,340.27
2023-05-03T00:29:07.507Z,451.73
2023-05-03T00:30:10.665Z,353.20
2023-05-03T00:31:15.450Z,311.42
2023-05-03T00:32:17.840Z,306.33
2023-05-03T00:33:22.617Z,306.45
2023-05-03T00:34:24.705Z,319.13
2023-05-03T00:35:30.602Z,289.17
2023-05-03T00:36:33.849Z,340.45
2023-05-03T00:37:40.603Z,244.85
2023-05-03T00:38:43.633Z,295.95
2023-05-03T00:39:48.362Z,299.92
2023-05-03T00:40:54.671Z,277.52
2023-05-03T00:42:00.577Z,255.90
2023-05-03T00:43:05.321Z,336.67
2023-05-03T00:44:11.851Z,301.90
2023-05-03T00:45:14.034Z,284.73
2023-05-03T00:46:19.100Z,322.50
2023-05-03T00:47:23.101Z,307.95
2023-05-03T00:48:28.278Z,293.95
2023-05-03T00:49:30.866Z,301.08
2023-05-03T00:50:36.205Z,324.45
2023-05-03T00:51:38.471Z,568.47
2023-05-03T00:52:44.506Z,315.00
2023-05-03T00:53:47.140Z,314.85
2023-05-03T00:54:52.368Z,437.20
2023-05-03T00:55:55.677Z,305.45
2023-05-03T00:57:02.337Z,343.77
2023-05-03T00:58:07.131Z,398.15
2023-05-03T00:59:12.851Z,346.98
2023-05-03T01:00:19.519Z,280.48
2023-05-03T01:01:25.478Z,369.52
2023-05-03T01:02:28.412Z,263.58
2023-05-03T01:03:33.704Z,297.85
2023-05-03T01:04:37.427Z,143.90
2023-05-03T01:05:53.317Z,357.13
2023-05-03T01:07:08.566Z,344.17
2023-05-03T01:08:23.662Z,280.05
2023-05-03T01:09:34.887Z,299.02
2023-05-03T01:10:52.730Z,296.23
2023-05-03T01:12:07.341Z,341.17
2023-05-03T01:13:25.906Z,320.25
2023-05-03T01:14:35.549Z,263.75
2023-05-03T01:15:49.088Z,303.23
2023-05-03T01:16:56.995Z,332.77
2023-05-03T01:18:10.478Z,293.00
2023-05-03T01:19:26.776Z,326.25
2023-05-03T01:20:31.255Z,294.17
2023-05-03T01:21:37.509Z,302.10
2023-05-03T01:22:47.360Z,282.88
2023-05-03T01:23:59.974Z,296.70
2023-05-03T01:25:07.966Z,285.73
2023-05-03T01:26:22.727Z,335.20
2023-05-03T01:27:24.907Z,299.15
2023-05-03T01:28:29.905Z,342.75
2023-05-03T01:29:32.313Z,237.25
2023-05-03T01:30:37.800Z,352.50
2023-05-03T01:31:44.679Z,345.45
2023-05-03T01:32:57.639Z,294.55
2023-05-03T01:34:17.225Z,450.67
2023-05-03T01:35:26.932Z,315.77
2023-05-03T01:36:35.760Z,231.23
2023-05-03T01:37:39.513Z,250.50
2023-05-03T01:38:45.364Z,262.67
2023-05-03T01:39:55.048Z,315.30
2023-05-03T01:41:05.410Z,301.58
2023-05-03T01:42:07.869Z,340.73
2023-05-03T01:43:16.501Z,340.02
2023-05-03T01:44:19.884Z,315.92
2023-05-03T01:45:25.784Z,254.23
2023-05-03T01:46:28.068Z,314.48
2023-05-03T01:47:33.590Z,309.48
2023-05-03T01:48:35.787Z,310.13
2023-05-03T01:49:40.758Z,338.85
2023-05-03T01:50:42.989Z,348.70
2023-05-03T01:51:48.080Z,286.40
2023-05-03T01:52:52.725Z,336.00
2023-05-03T01:53:57.736Z,327.55
2023-05-03T01:55:00.449Z,310.05
2023-05-03T01:56:09.390Z,365.80
2023-05-03T01:57:12.748Z,382.00
2023-05-03T01:58:17.540Z,342.20
2023-05-03T01:59:19.696Z,387.85
2023-05-03T02:00:25.087Z,320.10
2023-05-03T02:01:27.354Z,384.75
2023-05-03T02:02:32.125Z,319.35
2023-05-03T02:03:34.543Z,302.88
2023-05-03T02:04:39.813Z,408.17
2023-05-03T02:05:43.051Z,333.95
2023-05-03T02:06:48.052Z,217.27
2023-05-03T02:07:50.304Z,375.23
2023-05-03T02:08:57.483Z,327.20
2023-05-03T02:09:59.528Z,326.55
2023-05-03T02:11:07.358Z,344.52
2023-05-03T02:12:10.214Z,349.85
2023-05-03T02:13:16.780Z,374.23
2023-05-03T02:14:19.221Z,343.67
2023-05-03T02:15:24.364Z,350.42
2023-05-03T02:16:29.699Z,379.52
2023-05-03T02:17:32.212Z,311.85
2023-05-03T02:18:37.693Z,338.65
2023-05-03T02:19:39.827Z,302.02
2023-05-03T02:20:48.530Z,281.65
2023-05-03T02:21:52.080Z,321.23
2023-05-03T02:22:57.165Z,285.00
2023-05-03T02:24:00.152Z,302.33
2023-05-03T02:25:05.494Z,360.98
2023-05-03T02:26:13.180Z,331.13
2023-05-03T02:27:16.022Z,335.85
2023-05-03T02:28:23.565Z,279.50
2023-05-03T02:29:25.845Z,331.98
2023-05-03T02:30:30.840Z,311.00
2023-05-03T02:31:33.291Z,354.17
2023-05-03T02:32:38.470Z,358.02
2023-05-03T02:33:40.880Z,347.70
2023-05-03T02:34:47.622Z,331.70
2023-05-03T02:35:51.084Z,295.70
2023-05-03T02:36:56.051Z,309.30
2023-05-03T02:37:58.298Z,256.27
2023-05-03T02:39:17.395Z,382.92
2023-05-03T02:40:19.702Z,407.95
2023-05-03T02:41:27.615Z,387.65
2023-05-03T02:42:29.768Z,332.77
2023-05-03T02:43:34.746Z,308.52
2023-05-03T02:44:36.964Z,403.10
2023-05-03T02:45:41.818Z,343.35
2023-05-03T02:46:44.118Z,470.88
2023-05-03T02:47:49.262Z,239.13
2023-05-03T02:48:51.831Z,360.92
2023-05-03T02:49:56.850Z,415.55
2023-05-03T02:51:01.514Z,352.15
2023-05-03T02:52:06.666Z,407.77
2023-05-03T02:53:09.068Z,400.73
2023-05-03T02:54:13.922Z,390.90
2023-05-03T02:55:16.911Z,374.08
2023-05-03T02:56:21.886Z,339.83
2023-05-03T02:57:27.443Z,361.90
2023-05-03T02:58:34.262Z,336.88
2023-05-03T02:59:37.150Z,331.17
2023-05-03T03:00:42.171Z,257.17
2023-05-03T03:01:46.284Z,238.57
2023-05-03T03:02:51.475Z,336.20
2023-05-03T03:03:53.930Z,301.90
2023-05-03T03:05:00.593Z,332.85
2023-05-03T03:06:03.199Z,415.92
2023-05-03T03:07:12.029Z,303.92
2023-05-03T03:08:14.229Z,406.27
2023-05-03T03:09:19.307Z,324.77
2023-05-03T03:10:21.545Z,357.00
2023-05-03T03:11:27.087Z,377.48
2023-05-03T03:12:31.967Z,346.35
2023-05-03T03:13:40.010Z,366.48
2023-05-03T03:14:44.274Z,389.05
2023-05-03T03:15:49.094Z,323.15
2023-05-03T03:16:53.929Z,422.13
2023-05-03T03:17:59.006Z,366.15
2023-05-03T03:19:01.219Z,299.30
2023-05-03T03:20:07.754Z,308.17
2023-05-03T03:21:10.098Z,318.05
2023-05-03T03:22:15.039Z,409.50
2023-05-03T03:23:17.266Z,261.70
2023-05-03T03:24:22.497Z,229.85
2023-05-03T03:25:24.827Z,262.23
2023-05-03T03:26:29.887Z,274.27
2023-05-03T03:27:35.244Z,339.83
2023-05-03T03:28:40.912Z,259.10
2023-05-03T03:29:43.078Z,303.48
2023-05-03T03:30:49.851Z,339.25
2023-05-03T03:31:52.274Z,350.38
2023-05-03T03:32:57.246Z,251.88
2023-05-03T03:33:59.358Z,257.40
2023-05-03T03:35:05.968Z,297.63
2023-05-03T03:36:11.590Z,298.40
2023-05-03T03:37:16.310Z,325.65
2023-05-03T03:38:18.460Z,198.40
2023-05-03T03:39:27.096Z,255.95
2023-05-03T03:40:29.159Z,293.23
2023-05-03T03:41:34.045Z,279.23
2023-05-03T03:42:40.080Z,286.63
2023-05-03T03:43:45.300Z,353.02
2023-05-03T03:44:47.586Z,231.80
2023-05-03T03:45:52.539Z,264.17
2023-05-03T03:46:54.702Z,283.95
2023-05-03T03:47:59.921Z,340.88
2023-05-03T03:49:02.031Z,238.15
2023-05-03T03:50:07.721Z,262.60
2023-05-03T03:51:09.801Z,256.17
2023-05-03T03:52:14.767Z,295.85
2023-05-03T03:53:16.924Z,238.07
2023-05-03T03:54:21.829Z,238.93
2023-05-03T03:55:24.094Z,241.52
2023-05-03T03:56:29.055Z,247.75
2023-05-03T03:57:32.138Z,229.45
2023-05-03T03:58:39.490Z,297.33
2023-05-03T03:59:41.606Z,242.60
2023-05-03T04:00:46.777Z,217.65
2023-05-03T04:01:48.909Z,237.88
2023-05-03T04:02:55.556Z,241.88
2023-05-03T04:03:58.151Z,230.98
2023-05-03T04:05:03.002Z,287.88
2023-05-03T04:06:05.655Z,256.67
2023-05-03T04:07:12.021Z,272.90
2023-05-03T04:08:14.137Z,274.92
2023-05-03T04:09:19.101Z,216.80
2023-05-03T04:10:21.283Z,242.98
2023-05-03T04:11:26.227Z,180.60
2023-05-03T04:12:28.873Z,207.02
2023-05-03T04:13:34.130Z,253.90
2023-05-03T04:14:38.861Z,211.85
2023-05-03T04:15:43.895Z,258.33
2023-05-03T04:16:45.970Z,242.50
2023-05-03T04:17:51.010Z,233.80
2023-05-03T04:18:53.334Z,250.00
2023-05-03T04:19:58.343Z,300.40
2023-05-03T04:21:00.896Z,238.93
2023-05-03T04:22:05.968Z,279.38
2023-05-03T04:23:08.156Z,313.10
2023-05-03T04:24:14.360Z,310.98
2023-05-03T04:25:17.510Z,288.85
2023-05-03T04:26:31.200Z,292.60
2023-05-03T04:27:34.554Z,242.80
2023-05-03T04:28:39.606Z,230.45
2023-05-03T04:29:45.035Z,268.77
2023-05-03T04:30:50.129Z,252.00
2023-05-03T04:31:52.394Z,233.10
2023-05-03T04:33:00.247Z,232.00
2023-05-03T04:34:05.057Z,223.93
2023-05-03T04:35:10.768Z,338.75
2023-05-03T04:36:19.110Z,280.77
2023-05-03T04:37:22.656Z,277.20
2023-05-03T04:38:27.380Z,255.25
2023-05-03T04:39:29.834Z,263.98
2023-05-03T04:40:34.939Z,306.63
2023-05-03T04:41:39.791Z,288.80
2023-05-03T04:42:43.972Z,290.95
2023-05-03T04:43:49.503Z,302.67
2023-05-03T04:44:54.618Z,309.50
2023-05-03T04:45:59.745Z,263.48
2023-05-03T04:47:03.015Z,283.17
2023-05-03T04:48:09.561Z,322.33
2023-05-03T04:49:11.632Z,328.33
2023-05-03T04:50:16.787Z,288.73
2023-05-03T04:51:21.558Z,304.20
2023-05-03T04:52:23.723Z,294.85
2023-05-03T04:53:29.497Z,253.40
2023-05-03T04:54:32.549Z,295.67
2023-05-03T04:55:37.418Z,278.48
2023-05-03T04:56:39.575Z,231.38
2023-05-03T04:57:45.814Z,243.80
2023-05-03T04:58:47.920Z,257.13
2023-05-03T04:59:54.234Z,281.20
2023-05-03T05:00:59.007Z,251.60
2023-05-03T05:02:04.075Z,240.60
2023-05-03T05:03:06.683Z,388.25
2023-05-03T05:04:11.918Z,259.88
2023-05-03T05:05:14.217Z,251.85
2023-05-03T05:06:18.983Z,274.73
2023-05-03T05:07:21.168Z,276.42
2023-05-03T05:08:26.264Z,242.73
2023-05-03T05:09:31.328Z,265.33
2023-05-03T05:10:40.376Z,274.25
2023-05-03T05:11:42.585Z,216.23
2023-05-03T05:12:47.721Z,299.75
2023-05-03T05:13:49.997Z,271.50
2023-05-03T05:14:54.844Z,238.52
2023-05-03T05:15:59.999Z,245.32
2023-05-03T05:17:04.952Z,278.10
2023-05-03T05:18:10.721Z,262.40
2023-05-03T05:19:13.298Z,242.98
2023-05-03T05:20:19.071Z,286.92
2023-05-03T05:21:21.351Z,212.27
2023-05-03T05:22:26.339Z,184.73
2023-05-03T05:23:28.484Z,197.27
2023-05-03T05:24:33.250Z,215.55
2023-05-03T05:25:35.338Z,300.73
2023-05-03T05:26:40.228Z,231.02
2023-05-03T05:27:45.250Z,304.17
2023-05-03T05:28:48.468Z,241.68
2023-05-03T05:29:55.424Z,151.73
2023-05-03T05:31:00.227Z,223.82
2023-05-03T05:32:06.247Z,237.35
2023-05-03T05:33:08.818Z,202.98
2023-05-03T05:34:14.021Z,239.35
2023-05-03T05:35:17.998Z,200.65
2023-05-03T05:36:22.736Z,175.77
2023-05-03T05:37:30.958Z,192.63
2023-05-03T05:38:33.125Z,183.23
2023-05-03T05:39:37.882Z,167.80
2023-05-03T05:40:40.090Z,158.70
2023-05-03T05:41:44.864Z,173.13
2023-05-03T05:42:48.768Z,185.43
2023-05-03T05:43:55.503Z,268.45
2023-05-03T05:45:00.317Z,127.60
2023-05-03T05:46:08.627Z,176.95
2023-05-03T05:47:13.866Z,218.48
2023-05-03T05:48:16.161Z,202.55
2023-05-03T05:49:21.574Z,179.75
2023-05-03T05:50:26.764Z,187.80
2023-05-03T05:51:32.012Z,163.70
2023-05-03T05:52:34.215Z,181.85
2023-05-03T05:53:39.144Z,171.55
2023-05-03T05:54:43.919Z,191.20
2023-05-03T05:55:46.070Z,169.35
2023-05-03T05:56:51.240Z,154.70
2023-05-03T05:57:53.523Z,161.43
2023-05-03T05:58:58.680Z,122.28
2023-05-03T06:00:03.468Z,161.23
2023-05-03T06:01:11.211Z,176.13
2023-05-03T06:02:17.113Z,202.63
2023-05-03T06:03:22.145Z,217.45
2023-05-03T06:04:27.277Z,172.43
2023-05-03T06:05:32.237Z,180.80
2023-05-03T06:06:40.982Z,176.35
2023-05-03T06:07:43.217Z,159.70
2023-05-03T06:08:50.388Z,227.80
2023-05-03T06:09:52.570Z,193.25
2023-05-03T06:10:57.452Z,151.10
2023-05-03T06:11:59.504Z,239.48
2023-05-03T06:13:05.071Z,202.52
2023-05-03T06:14:09.756Z,264.13
2023-05-03T06:15:17.736Z,314.20
2023-05-03T06:16:25.446Z,274.85
2023-05-03T06:17:27.942Z,239.60
2023-05-03T06:18:32.829Z,271.13
2023-05-03T06:19:34.900Z,234.48
2023-05-03T06:20:39.813Z,238.77
2023-05-03T06:21:41.971Z,275.20
2023-05-03T06:22:47.178Z,255.68
2023-05-03T06:23:49.409Z,277.85
2023-05-03T06:24:58.176Z,266.83
2023-05-03T06:26:00.292Z,294.98
2023-05-03T06:27:05.286Z,249.18
2023-05-03T06:28:07.357Z,282.05
2023-05-03T06:29:12.159Z,288.58
2023-05-03T06:30:16.332Z,301.48
2023-05-03T06:31:21.531Z,266.02
2023-05-03T06:32:29.390Z,196.10
2023-05-03T06:33:34.134Z,298.25
2023-05-03T06:34:36.556Z,240.50
2023-05-03T06:35:41.435Z,228.70
2023-05-03T06:36:46.428Z,248.05
2023-05-03T06:37:48.684Z,270.42
2023-05-03T06:38:53.379Z,232.50
2023-05-03T06:39:55.573Z,235.90
2023-05-03T06:41:00.286Z,213.38
2023-05-03T06:42:05.276Z,277.88
2023-05-03T06:43:07.679Z,261.98
2023-05-03T06:44:12.642Z,222.82
2023-05-03T06:45:14.888Z,197.10
2023-05-03T06:46:21.134Z,264.50
2023-05-03T06:47:26.100Z,221.45
2023-05-03T06:48:31.404Z,231.77
2023-05-03T06:49:36.468Z,240.38
2023-05-03T06:50:39.465Z,219.93
2023-05-03T06:51:44.322Z,338.80
2023-05-03T06:52:49.317Z,225.13
2023-05-03T06:53:52.450Z,249.93
2023-05-03T06:54:57.201Z,237.50
2023-05-03T06:56:03.855Z,216.70
2023-05-03T06:57:06.275Z,235.15
2023-05-03T06:58:12.188Z,249.85
2023-05-03T06:59:17.075Z,235.68
2023-05-03T07:00:23.584Z,256.85
2023-05-03T07:01:25.737Z,284.80
2023-05-03T07:02:33.591Z,259.13
2023-05-03T07:03:40.955Z,287.13
2023-05-03T07:04:46.859Z,328.50
2023-05-03T07:05:49.262Z,312.58
2023-05-03T07:06:56.704Z,291.08
2023-05-03T07:07:59.122Z,323.58
2023-05-03T07:09:05.835Z,317.95
2023-05-03T07:10:08.643Z,349.35
2023-05-03T07:11:13.905Z,325.45
2023-05-03T07:12:16.659Z,293.70
2023-05-03T07:13:21.674Z,308.23
2023-05-03T07:14:24.488Z,222.00
2023-05-03T07:15:29.452Z,295.42
2023-05-03T07:16:31.665Z,307.77
2023-05-03T07:17:39.301Z,210.82
2023-05-03T07:18:41.465Z,248.05
2023-05-03T07:19:46.216Z,283.92
2023-05-03T07:20:51.443Z,260.75
2023-05-03T07:21:54.579Z,326.42
2023-05-03T07:22:59.872Z,260.85
2023-05-03T07:24:01.983Z,291.25
2023-05-03T07:25:12.525Z,344.33
2023-05-03T07:26:17.524Z,338.23
2023-05-03T07:27:20.688Z,333.23
2023-05-03T07:28:26.064Z,368.45
2023-05-03T07:29:30.090Z,309.75
2023-05-03T07:30:34.778Z,343.65
2023-05-03T07:31:39.647Z,355.00
2023-05-03T07:32:47.173Z,356.90
2023-05-03T07:33:52.221Z,353.38
2023-05-03T07:34:54.527Z,915.10
2023-05-03T07:35:59.316Z,955.28
2023-05-03T07:37:04.400Z,198.25
2023-05-03T07:38:09.240Z,269.17
2023-05-03T07:39:11.382Z,228.98
2023-05-03T07:40:16.689Z,244.00
2023-05-03T07:41:19.296Z,198.52
2023-05-03T07:42:23.932Z,232.45
2023-05-03T07:43:26.147Z,189.07
2023-05-03T07:44:31.435Z,203.77
2023-05-03T07:45:36.291Z,289.55
2023-05-03T07:46:41.075Z,234.90
2023-05-03T07:47:48.440Z,219.32
2023-05-03T07:48:50.691Z,324.25
2023-05-03T07:49:55.551Z,227.50
2023-05-03T07:51:00.729Z,192.05
2023-05-03T07:52:06.080Z,179.10
2023-05-03T07:53:10.930Z,203.27
2023-05-03T07:54:13.219Z,271.13
2023-05-03T07:55:21.578Z,220.85
2023-05-03T07:56:27.006Z,202.27
2023-05-03T07:57:32.079Z,265.88
2023-05-03T07:58:40.554Z,207.20
2023-05-03T07:59:43.959Z,230.68
2023-05-03T08:00:48.850Z,180.75
2023-05-03T08:01:53.711Z,182.35
2023-05-03T08:03:03.961Z,230.30
2023-05-03T08:04:09.248Z,197.27
2023-05-03T08:05:15.895Z,183.95
2023-05-03T08:06:18.566Z,202.10
2023-05-03T08:07:23.859Z,243.68
2023-05-03T08:08:28.807Z,190.57
2023-05-03T08:09:31.303Z,151.38
2023-05-03T08:10:38.103Z,191.27
2023-05-03T08:11:42.335Z,242.25
2023-05-03T08:12:48.570Z,132.70
2023-05-03T08:13:53.793Z,262.08
2023-05-03T08:14:56.738Z,186.55
2023-05-03T08:16:01.609Z,220.80
2023-05-03T08:17:08.220Z,230.93
2023-05-03T08:18:15.725Z,200.73
2023-05-03T08:19:17.888Z,187.65
2023-05-03T08:20:23.440Z,216.75
2023-05-03T08:21:28.827Z,208.65
2023-05-03T08:22:33.490Z,183.13
2023-05-03T08:23:38.324Z,211.07
2023-05-03T08:24:40.754Z,199.18
2023-05-03T08:25:45.888Z,220.75
2023-05-03T08:26:49.238Z,194.05
2023-05-03T08:27:55.829Z,162.82
2023-05-03T08:28:58.067Z,254.48
2023-05-03T08:30:04.150Z,190.82
2023-05-03T08:31:09.646Z,182.82
2023-05-03T08:32:12.006Z,229.48
2023-05-03T08:33:19.268Z,189.93
2023-05-03T08:34:23.971Z,227.02
2023-05-03T08:35:28.437Z,201.52
2023-05-03T08:36:36.206Z,170.48
2023-05-03T08:37:39.664Z,131.15
2023-05-03T08:38:49.122Z,180.93
2023-05-03T08:39:54.232Z,180.75
2023-05-03T08:41:14.754Z,169.85
2023-05-03T08:42:19.531Z,251.13
2023-05-03T08:43:27.069Z,183.88
2023-05-03T08:44:30.026Z,206.55
2023-05-03T08:45:37.313Z,173.25
2023-05-03T08:46:39.538Z,159.18
2023-05-03T08:47:45.320Z,172.38
2023-05-03T08:48:54.524Z,201.48
2023-05-03T08:49:58.606Z,183.50
2023-05-03T08:51:04.904Z,194.70
2023-05-03T08:52:07.689Z,165.45
2023-05-03T08:53:12.981Z,165.15
2023-05-03T08:54:20.792Z,197.32
2023-05-03T08:55:26.105Z,181.48
2023-05-03T08:56:35.702Z,199.35
2023-05-03T08:57:41.505Z,169.73
2023-05-03T08:58:48.792Z,162.65
2023-05-03T08:59:54.591Z,180.48
2023-05-03T09:00:59.470Z,153.40
2023-05-03T09:02:01.681Z,161.50
2023-05-03T09:03:07.792Z,188.85
2023-05-03T09:04:15.647Z,175.00
2023-05-03T09:05:39.136Z,201.63
2023-05-03T09:06:44.535Z,170.70
2023-05-03T09:08:03.989Z,193.85
2023-05-03T09:09:11.275Z,203.43
2023-05-03T09:10:26.056Z,147.20
2023-05-03T09:11:32.892Z,197.35
2023-05-03T09:12:36.732Z,230.40
2023-05-03T09:13:41.672Z,216.43
2023-05-03T09:14:47.070Z,193.63
2023-05-03T09:15:57.264Z,205.00
2023-05-03T09:17:14.868Z,157.27
2023-05-03T09:18:22.887Z,244.05
2023-05-03T09:19:30.714Z,297.65
2023-05-03T09:20:39.910Z,218.43
2023-05-03T09:21:47.460Z,237.90
2023-05-03T09:22:52.642Z,303.75
2023-05-03T09:23:57.445Z,256.80
2023-05-03T09:25:01.208Z,348.67
2023-05-03T09:26:07.384Z,221.30
2023-05-03T09:27:21.944Z,225.18
2023-05-03T09:28:24.211Z,373.92
2023-05-03T09:29:34.425Z,296.17
2023-05-03T09:30:37.134Z,260.08
2023-05-03T09:32:02.132Z,340.35
2023-05-03T09:33:04.793Z,328.15
2023-05-03T09:34:25.004Z,244.88
2023-05-03T09:35:32.895Z,242.13
2023-05-03T09:36:49.996Z,240.57
2023-05-03T09:37:54.772Z,237.27
2023-05-03T09:39:01.544Z,191.88
2023-05-03T09:40:08.250Z,302.77
2023-05-03T09:41:13.862Z,285.17
2023-05-03T09:42:21.156Z,286.00
2023-05-03T09:43:24.444Z,325.67
2023-05-03T09:44:44.752Z,366.23
2023-05-03T09:45:49.773Z,261.50
2023-05-03T09:47:07.712Z,236.65
2023-05-03T09:48:13.039Z,283.70
2023-05-03T09:49:18.304Z,289.80
2023-05-03T09:50:21.005Z,314.33
2023-05-03T09:51:28.427Z,281.60
2023-05-03T09:52:31.372Z,349.55
2023-05-03T09:53:37.389Z,349.65
2023-05-03T09:54:42.532Z,312.52
2023-05-03T09:55:45.028Z,262.15
2023-05-03T09:56:50.210Z,358.25
2023-05-03T09:57:55.929Z,288.60
2023-05-03T09:59:01.248Z,340.95
2023-05-03T10:00:04.251Z,266.00
2023-05-03T10:01:10.315Z,252.48
2023-05-03T10:02:15.133Z,290.92
2023-05-03T10:03:22.537Z,266.20
2023-05-03T10:04:29.822Z,301.58
2023-05-03T10:05:33.636Z,297.55
2023-05-03T10:06:44.240Z,179.75
2023-05-03T10:07:46.553Z,269.58
2023-05-03T10:08:55.260Z,249.30
2023-05-03T10:09:59.102Z,258.17
2023-05-03T10:11:07.001Z,294.95
2023-05-03T10:12:16.649Z,317.80
2023-05-03T10:13:19.675Z,239.95
2023-05-03T10:14:25.154Z,385.90
2023-05-03T10:15:28.857Z,311.83
2023-05-03T10:16:39.693Z,282.05
2023-05-03T10:17:48.669Z,335.70
2023-05-03T10:18:59.464Z,309.15
2023-05-03T10:20:13.429Z,261.33
2023-05-03T10:21:28.258Z,255.73
2023-05-03T10:22:33.333Z,359.50
2023-05-03T10:23:38.061Z,277.92
2023-05-03T10:25:13.569Z,281.70
2023-05-03T10:26:20.073Z,204.13
2023-05-03T10:27:24.905Z,385.70
2023-05-03T10:28:32.724Z,294.63
2023-05-03T10:29:54.888Z,230.90
2023-05-03T10:30:59.749Z,316.20
2023-05-03T10:32:04.984Z,275.73
2023-05-03T10:33:31.885Z,287.10
2023-05-03T10:34:35.182Z,345.38
2023-05-03T10:35:43.300Z,364.05
2023-05-03T10:36:49.782Z,264.73
2023-05-03T10:38:02.562Z,262.05
2023-05-03T10:39:05.286Z,219.98
2023-05-03T10:40:14.011Z,211.75
2023-05-03T10:41:27.617Z,218.63
2023-05-03T10:42:31.299Z,227.73
2023-05-03T10:43:47.157Z,210.70
2023-05-03T10:44:53.278Z,217.02
2023-05-03T10:45:59.749Z,216.70
2023-05-03T10:47:13.278Z,164.07
2023-05-03T10:48:23.544Z,170.98
2023-05-03T10:49:28.866Z,199.85
2023-05-03T10:50:31.100Z,236.38
2023-05-03T10:51:37.510Z,224.75
2023-05-03T10:52:47.766Z,197.98
2023-05-03T10:53:55.316Z,162.90
2023-05-03T10:55:00.295Z,177.02
2023-05-03T10:56:03.897Z,178.00
2023-05-03T10:57:09.067Z,192.80
2023-05-03T10:58:17.605Z,208.38
2023-05-03T10:59:23.176Z,164.25
2023-05-03T11:00:37.561Z,187.10
2023-05-03T11:01:41.707Z,191.40
2023-05-03T11:03:11.134Z,155.05
2023-05-03T11:04:21.986Z,158.50
2023-05-03T11:05:27.360Z,154.18
2023-05-03T11:06:36.694Z,225.23
2023-05-03T11:07:40.012Z,166.40
2023-05-03T11:08:51.896Z,162.43
2023-05-03T11:09:59.324Z,171.65
2023-05-03T11:11:02.764Z,216.10
2023-05-03T11:12:09.541Z,146.00
2023-05-03T11:13:15.446Z,153.52
2023-05-03T11:14:17.882Z,187.45
2023-05-03T11:15:22.844Z,154.23
2023-05-03T11:16:26.234Z,126.18
2023-05-03T11:17:31.274Z,198.05
2023-05-03T11:18:34.761Z,188.40
2023-05-03T11:19:40.093Z,157.60
2023-05-03T11:20:42.355Z,147.95
2023-05-03T11:21:48.903Z,189.43
2023-05-03T11:22:51.178Z,181.98
2023-05-03T11:23:55.934Z,265.10
2023-05-03T11:25:04.416Z,223.30
2023-05-03T11:26:08.292Z,222.30
2023-05-03T11:27:16.746Z,306.77
2023-05-03T11:28:18.852Z,283.00
2023-05-03T11:29:23.570Z,262.85
2023-05-03T11:30:25.754Z,1160.18
2023-05-03T11:31:31.016Z,1174.07
2023-05-03T11:32:36.863Z,508.25
2023-05-03T11:33:40.383Z,1171.80
2023-05-03T11:34:45.720Z,1189.05
2023-05-03T11:35:50.692Z,1179.18
2023-05-03T11:36:55.445Z,1154.63
2023-05-03T11:37:58.973Z,1218.40
2023-05-03T11:39:06.023Z,1222.32
2023-05-03T11:40:20.078Z,1230.43
2023-05-03T11:41:24.932Z,1271.70
2023-05-03T11:42:28.594Z,1259.82
2023-05-03T11:43:33.813Z,1255.40
2023-05-03T11:44:39.023Z,1246.47
2023-05-03T11:45:44.641Z,1245.32
2023-05-03T11:46:51.108Z,1205.70
2023-05-03T11:47:57.316Z,1152.10
2023-05-03T11:48:59.548Z,1079.65
2023-05-03T11:50:04.562Z,769.40
2023-05-03T11:51:14.348Z,923.83
2023-05-03T11:52:24.104Z,706.67
2023-05-03T11:53:29.667Z,964.10
2023-05-03T11:54:34.368Z,883.95
2023-05-03T11:55:42.869Z,851.28
2023-05-03T11:56:47.832Z,743.58
2023-05-03T11:57:52.664Z,759.92
2023-05-03T11:58:59.820Z,806.35
2023-05-03T12:00:11.393Z,747.67
2023-05-03T12:01:16.782Z,806.47
2023-05-03T12:02:22.830Z,793.30
2023-05-03T12:03:31.963Z,855.95
2023-05-03T12:04:37.231Z,769.10
2023-05-03T12:05:44.389Z,798.47
2023-05-03T12:06:54.299Z,740.83
2023-05-03T12:08:01.277Z,703.67
2023-05-03T12:09:08.515Z,765.45
2023-05-03T12:10:23.681Z,728.90
2023-05-03T12:11:43.800Z,602.53
2023-05-03T12:13:00.780Z,686.20
2023-05-03T12:14:06.869Z,721.95
2023-05-03T12:15:11.716Z,734.03
2023-05-03T12:16:20.930Z,694.13
2023-05-03T12:17:38.615Z,704.90
2023-05-03T12:18:56.239Z,864.05
2023-05-03T12:20:51.398Z,678.35
2023-05-03T12:22:03.999Z,744.70
2023-05-03T12:23:15.582Z,673.17
2023-05-03T12:24:20.637Z,649.97
2023-05-03T12:25:27.629Z,776.20
2023-05-03T12:26:37.854Z,776.03
2023-05-03T12:27:40.862Z,667.75
2023-05-03T12:28:46.029Z,743.65
2023-05-03T12:29:51.937Z,671.80
2023-05-03T12:30:54.267Z,710.75
2023-05-03T12:32:03.724Z,785.65
2023-05-03T12:33:10.264Z,800.70
2023-05-03T12:34:32.488Z,808.20
2023-05-03T12:35:41.367Z,710.28
2023-05-03T12:36:48.977Z,607.85
2023-05-03T12:39:01.856Z,689.22
2023-05-03T12:41:22.772Z,364.33
2023-05-03T12:42:43.959Z,338.13
2023-05-03T12:43:52.511Z,419.38
2023-05-03T12:45:03.995Z,544.75
2023-05-03T12:47:27.801Z,522.35
2023-05-03T12:48:34.194Z,477.17
2023-05-03T12:49:38.674Z,599.22
2023-05-03T12:50:45.636Z,557.20
2023-05-03T12:52:02.844Z,471.60
2023-05-03T12:53:17.535Z,555.03
2023-05-03T12:54:27.174Z,640.90
2023-05-03T12:55:35.601Z,615.65
2023-05-03T12:56:41.589Z,579.22
2023-05-03T12:58:10.352Z,562.70
2023-05-03T13:00:25.436Z,600.13
2023-05-03T13:03:19.367Z,600.47
2023-05-03T13:05:31.888Z,584.00
2023-05-03T13:06:42.803Z,653.20
2023-05-03T13:07:55.698Z,591.63
2023-05-03T13:09:02.554Z,616.28
2023-05-03T13:11:16.945Z,527.83
2023-05-03T13:12:22.721Z,596.63
2023-05-03T13:13:30.832Z,655.15
2023-05-03T13:14:33.431Z,609.53
2023-05-03T13:15:40.010Z,601.05
2023-05-03T13:16:44.493Z,532.65
2023-05-03T13:17:51.502Z,536.72
2023-05-03T13:19:00.761Z,392.75
2023-05-03T13:20:08.459Z,491.00
2023-05-03T13:21:11.387Z,407.08
2023-05-03T13:22:17.313Z,322.48
2023-05-03T13:23:22.099Z,367.38
2023-05-03T13:24:26.683Z,348.65
2023-05-03T13:25:31.986Z,360.73
2023-05-03T13:26:36.133Z,398.83
2023-05-03T13:27:41.330Z,367.60
2023-05-03T13:28:48.566Z,369.83
2023-05-03T13:29:53.469Z,379.55
2023-05-03T13:30:59.594Z,353.17
2023-05-03T13:32:04.618Z,304.73
2023-05-03T13:33:09.661Z,365.95
2023-05-03T13:34:12.154Z,404.20
2023-05-03T13:35:17.032Z,396.33
2023-05-03T13:36:19.371Z,274.77
2023-05-03T13:37:24.471Z,328.27
2023-05-03T13:38:29.439Z,389.05
2023-05-03T13:39:33.197Z,452.25
2023-05-03T13:40:38.071Z,316.92
2023-05-03T13:41:41.152Z,266.65
2023-05-03T13:42:45.863Z,229.07
2023-05-03T13:43:50.939Z,292.73
2023-05-03T13:44:55.759Z,241.40
2023-05-03T13:46:01.418Z,296.98
2023-05-03T13:47:06.980Z,379.30
2023-05-03T13:48:17.802Z,247.45
2023-05-03T13:49:25.334Z,306.92
2023-05-03T13:50:32.469Z,327.38
2023-05-03T13:51:35.711Z,311.98